sim
Sign-in with your pilot id or email,
or register
Callsign
Passwort

Schedule Details

Flight Number: DLH1705 (1)
Departure: Sofia Airport (LBSF) at 17:00
Arrival: Munich Airport (EDDM) at 19:00
Route: Lufthansa Passenger Schedule. Enter filed route here before submitting Pirep.

Weather Information
Getting current METAR information for LBSF 190430Z 10011KT 9999 BKN083 16/11 Q1023 NOSIG
Getting current METAR information for EDDM 190450Z 32001KT CAVOK 04/03 Q1020 NOSIG

Schedule Frequency

Route Map